Time;durP1;ratioP1;P1;durP2;ratioP2;P2;SDS_P1;SDS_P2;PMS_P1;PMS_P2;Temp;Humidity;BMP_temperature;BMP_pressure;BME280_temperature;BME280_humidity;BME280_pressure;Samples;Min_cycle;Max_cycle;Signal;HPM_P1;HPM_P2
2021/09/13 00:01:03;;;;;;;2.33;0.88;;;;;;;;;;5014195;28;20021;-83
2021/09/13 00:03:30;;;;;;;1.23;0.82;;;;;;;;;;5014232;28;20424;-83
2021/09/13 00:05:55;;;;;;;3.28;1.10;;;;;;;;;;5015836;28;20050;-83
2021/09/13 00:08:21;;;;;;;1.40;0.80;;;;;;;;;;5015916;28;20459;-83
2021/09/13 00:10:48;;;;;;;2.38;1.05;;;;;;;;;;5016567;28;20022;-83
2021/09/13 00:13:14;;;;;;;1.65;1.33;;;;;;;;;;5017699;28;20136;-82
2021/09/13 00:15:40;;;;;;;2.05;1.08;;;;;;;;;;5012498;28;20515;-83
2021/09/13 00:18:06;;;;;;;3.53;1.10;;;;;;;;;;5013421;28;20033;-82
2021/09/13 00:20:32;;;;;;;2.25;1.08;;;;;;;;;;5025751;28;20399;-84
2021/09/13 00:22:58;;;;;;;1.45;1.02;;;;;;;;;;5023834;28;20026;-82
2021/09/13 00:25:24;;;;;;;0.82;0.70;;;;;;;;;;5014826;28;20524;-81
2021/09/13 00:27:52;;;;;;;1.17;0.80;;;;;;;;;;5027289;28;20026;-83
2021/09/13 00:30:18;;;;;;;1.65;1.27;;;;;;;;;;5015117;28;20054;-83
2021/09/13 00:32:44;;;;;;;2.83;0.88;;;;;;;;;;5016079;28;20553;-83
2021/09/13 00:35:10;;;;;;;1.17;0.90;;;;;;;;;;5015909;28;20030;-83
2021/09/13 00:37:36;;;;;;;1.13;1.00;;;;;;;;;;5017711;28;20034;-84
2021/09/13 00:40:03;;;;;;;2.00;0.75;;;19.10;60.90;;;;;;5015314;28;20029;-82
2021/09/13 00:42:30;;;;;;;2.28;1.20;;;;;;;;;;5011044;28;20025;-83
2021/09/13 00:44:57;;;;;;;2.50;1.33;;;;;;;;;;5016165;28;20084;-83
2021/09/13 00:47:23;;;;;;;3.55;0.85;;;;;;;;;;5014704;28;20026;-83
2021/09/13 00:49:49;;;;;;;0.70;0.70;;;;;;;;;;5017762;28;20121;-83
2021/09/13 00:52:15;;;;;;;2.72;1.60;;;;;;;;;;5015300;28;20486;-83
2021/09/13 00:54:41;;;;;;;2.13;1.40;;;;;;;;;;5010186;28;20041;-83
2021/09/13 00:57:07;;;;;;;0.77;0.60;;;;;;;;;;5013524;28;20044;-83
2021/09/13 00:59:33;;;;;;;1.88;1.10;;;;;;;;;;5015378;28;20113;-83
2021/09/13 01:01:59;;;;;;;4.80;0.90;;;;;;;;;;5017355;28;20562;-82
2021/09/13 01:04:25;;;;;;;2.60;1.05;;;;;;;;;;5018690;28;20021;-83
2021/09/13 01:06:51;;;;;;;2.53;1.10;;;;;;;;;;5027101;28;20025;-83
2021/09/13 01:09:17;;;;;;;1.48;0.90;;;;;;;;;;5014117;28;20026;-84
2021/09/13 01:11:44;;;;;;;1.42;0.70;;;;;;;;;;5031857;28;20030;-84
2021/09/13 01:14:10;;;;;;;1.48;0.93;;;;;;;;;;5016913;28;20049;-83
2021/09/13 01:16:36;;;;;;;1.95;1.05;;;;;;;;;;5016161;28;20045;-83
2021/09/13 01:19:02;;;;;;;1.95;0.95;;;;;;;;;;5026392;28;20069;-82
2021/09/13 01:21:28;;;;;;;2.45;1.00;;;;;;;;;;5012379;28;20053;-83
2021/09/13 01:23:54;;;;;;;1.40;0.98;;;;;;;;;;5015796;28;20406;-83
2021/09/13 01:26:21;;;;;;;2.47;0.63;;;;;;;;;;5025020;28;20017;-83
2021/09/13 01:28:47;;;;;;;2.33;1.25;;;;;;;;;;5026010;28;20449;-84
2021/09/13 01:31:13;;;;;;;1.58;0.90;;;;;;;;;;5024258;28;20041;-82
2021/09/13 01:33:39;;;;;;;1.25;0.73;;;;;;;;;;5011757;28;20068;-82
2021/09/13 01:36:05;;;;;;;1.17;0.70;;;;;;;;;;5012873;28;20528;-82
2021/09/13 01:38:32;;;;;;;1.35;0.82;;;;;;;;;;5023385;28;20021;-82
2021/09/13 01:40:58;;;;;;;0.95;0.63;;;;;;;;;;5020595;28;20029;-82
2021/09/13 01:43:24;;;;;;;1.60;0.75;;;;;;;;;;5010686;28;20402;-83
2021/09/13 01:45:50;;;;;;;1.50;0.80;;;;;;;;;;5025880;28;20032;-83
2021/09/13 01:48:16;;;;;;;1.77;1.10;;;;;;;;;;5028710;28;20030;-83
2021/09/13 01:50:42;;;;;;;2.60;0.85;;;;;;;;;;5023212;28;20032;-82
2021/09/13 01:53:08;;;;;;;1.08;0.77;;;;;;;;;;5018276;28;20084;-82
2021/09/13 01:55:34;;;;;;;0.93;0.65;;;;;;;;;;5015849;28;20568;-82
2021/09/13 01:58:00;;;;;;;1.02;0.90;;;;;;;;;;5010351;28;20034;-83
2021/09/13 02:00:26;;;;;;;1.10;0.95;;;;;;;;;;5012229;28;20056;-82
2021/09/13 02:02:52;;;;;;;1.13;0.70;;;;;;;;;;5014690;28;20330;-82
2021/09/13 02:05:18;;;;;;;0.80;0.63;;;;;;;;;;5015638;28;20487;-83
2021/09/13 02:07:44;;;;;;;1.85;1.15;;;;;;;;;;5015457;28;20033;-82
2021/09/13 02:10:10;;;;;;;1.10;0.93;;;;;;;;;;5012574;28;20025;-83
2021/09/13 02:12:36;;;;;;;1.25;0.90;;;;;;;;;;5011342;28;20029;-83
2021/09/13 02:15:03;;;;;;;1.75;0.80;;;;;;;;;;5015229;28;20042;-81
2021/09/13 02:17:29;;;;;;;5.70;1.00;;;;;;;;;;5018998;28;20478;-83
2021/09/13 02:19:55;;;;;;;4.40;0.88;;;;;;;;;;5020809;28;20030;-82
2021/09/13 02:22:21;;;;;;;3.13;0.80;;;;;;;;;;5013014;28;20103;-83
2021/09/13 02:24:47;;;;;;;1.58;1.08;;;;;;;;;;5026150;28;20030;-84
2021/09/13 02:27:13;;;;;;;1.00;0.80;;;;;;;;;;5012770;28;20036;-82
2021/09/13 02:29:39;;;;;;;2.28;1.33;;;;;;;;;;5024019;28;20029;-83
2021/09/13 02:32:05;;;;;;;1.17;0.70;;;;;;;;;;5019427;28;20530;-82
2021/09/13 02:34:31;;;;;;;1.67;1.02;;;;;;;;;;5015869;28;20048;-83
2021/09/13 02:36:57;;;;;;;0.77;0.70;;;;;;;;;;5026661;28;20534;-83
2021/09/13 02:39:23;;;;;;;4.25;1.95;;;;;;;;;;5027678;28;20079;-83
2021/09/13 02:41:49;;;;;;;1.25;1.13;;;;;;;;;;5016969;28;20018;-83
2021/09/13 02:44:15;;;;;;;1.08;0.77;;;;;;;;;;5019057;28;20403;-83
2021/09/13 02:46:41;;;;;;;2.10;1.00;;;;;;;;;;5017970;28;20038;-82
2021/09/13 02:49:07;;;;;;;1.35;1.25;;;;;;;;;;5014167;28;20486;-84
2021/09/13 02:51:33;;;;;;;1.35;0.82;;;;;;;;;;5028912;28;20029;-82
2021/09/13 02:53:59;;;;;;;1.52;1.15;;;;;;;;;;5017363;28;20159;-81
2021/09/13 02:56:25;;;;;;;2.00;1.17;;;;;;;;;;5019750;28;20049;-83
2021/09/13 02:58:51;;;;;;;2.40;1.13;;;;;;;;;;5017575;28;20076;-82
2021/09/13 03:01:17;;;;;;;2.58;0.90;;;;;;;;;;5016385;28;20441;-83
2021/09/13 03:03:43;;;;;;;5.13;0.70;;;;;;;;;;5029766;28;20049;-83
2021/09/13 03:06:09;;;;;;;0.75;0.63;;;;;;;;;;5016904;28;20026;-83
2021/09/13 03:08:35;;;;;;;1.43;1.00;;;;;;;;;;5026576;28;20622;-82
2021/09/13 03:11:03;;;;;;;2.75;0.90;;;;;;;;;;5022435;28;20022;-84
2021/09/13 03:13:29;;;;;;;0.60;0.50;;;;;;;;;;5019288;28;20030;-82
2021/09/13 03:15:55;;;;;;;1.15;0.60;;;;;;;;;;5014520;28;20173;-83
2021/09/13 03:18:21;;;;;;;1.73;1.23;;;;;;;;;;5015524;28;20870;-82
2021/09/13 03:20:47;;;;;;;2.00;1.00;;;;;;;;;;5017251;28;20062;-82
2021/09/13 03:23:13;;;;;;;4.60;1.13;;;;;;;;;;5017250;28;20402;-83
2021/09/13 03:25:39;;;;;;;1.23;0.60;;;;;;;;;;5018686;28;20109;-82
2021/09/13 03:28:05;;;;;;;1.67;1.05;;;;;;;;;;5028799;28;20120;-84
2021/09/13 03:30:31;;;;;;;1.30;1.00;;;;;;;;;;5013014;28;20444;-82
2021/09/13 03:32:57;;;;;;;1.67;0.98;;;;;;;;;;5031936;28;20474;-83
2021/09/13 03:35:23;;;;;;;3.28;0.80;;;;;;;;;;5017627;28;20037;-83
2021/09/13 03:37:49;;;;;;;3.95;2.35;;;;;;;;;;5022903;28;20029;-82
2021/09/13 03:40:15;;;;;;;4.90;0.80;;;;;;;;;;5028250;28;20173;-82
2021/09/13 03:42:41;;;;;;;2.42;1.40;;;;;;;;;;5029398;28;20021;-83
2021/09/13 03:45:07;;;;;;;3.28;1.02;;;;;;;;;;5016079;28;20018;-82
2021/09/13 03:47:33;;;;;;;0.85;0.70;;;;;;;;;;5025891;28;20017;-82
2021/09/13 03:49:59;;;;;;;1.48;0.85;;;;;;;;;;5026193;28;20036;-82
2021/09/13 03:52:25;;;;;;;1.15;0.93;;;;;;;;;;5026711;28;20025;-81
2021/09/13 03:54:51;;;;;;;1.10;0.98;;;;;;;;;;5029272;28;23911;-82
2021/09/13 03:57:17;;;;;;;1.48;0.95;;;;;;;;;;5033552;28;20086;-82
2021/09/13 03:59:43;;;;;;;3.10;1.20;;;;;;;;;;5018837;28;20032;-82
2021/09/13 04:02:09;;;;;;;2.03;1.10;;;;;;;;;;5016408;28;20025;-83
2021/09/13 04:04:36;;;;;;;2.53;0.90;;;;;;;;;;5015971;28;20452;-83
2021/09/13 04:07:25;;;;;;;3.22;2.03;;;;;;;;;;5012458;28;20402;-82
2021/09/13 04:09:58;;;;;;;1.05;0.80;;;;;;;;;;5012560;28;20026;-82
2021/09/13 04:12:24;;;;;;;1.05;0.98;;;;;;;;;;5014245;28;20561;-83
2021/09/13 04:14:50;;;;;;;1.35;0.88;;;;;;;;;;5016320;28;20041;-82
2021/09/13 04:17:16;;;;;;;2.67;1.20;;;;;;;;;;5016781;28;20029;-83
2021/09/13 04:19:42;;;;;;;1.80;1.00;;;;;;;;;;5021394;28;20030;-82
2021/09/13 04:22:09;;;;;;;2.83;0.70;;;;;;;;;;5027577;28;20519;-82
2021/09/13 04:24:35;;;;;;;1.67;0.90;;;;;;;;;;5013010;28;20038;-82
2021/09/13 04:27:01;;;;;;;1.63;0.88;;;;;;;;;;5015306;28;20593;-82
2021/09/13 04:29:27;;;;;;;1.23;0.90;;;;;;;;;;5017843;28;20112;-82
2021/09/13 04:31:53;;;;;;;2.20;1.10;;;;;;;;;;5015999;28;20123;-83
2021/09/13 04:34:19;;;;;;;2.15;1.30;;;;;;;;;;5015337;28;20112;-82
2021/09/13 04:36:45;;;;;;;1.45;1.00;;;;;;;;;;5010232;28;20059;-82
2021/09/13 04:39:11;;;;;;;2.22;1.33;;;;;;;;;;5030448;28;20647;-82
2021/09/13 04:41:37;;;;;;;1.67;0.93;;;;;;;;;;5025536;28;20034;-83
2021/09/13 04:44:03;;;;;;;1.55;1.45;;;;;;;;;;5022502;28;20029;-84
2021/09/13 04:46:29;;;;;;;1.98;1.55;;;;;;;;;;5015653;28;20106;-82
2021/09/13 04:48:56;;;;;;;2.13;1.10;;;;;;;;;;5026950;28;20033;-83
2021/09/13 04:51:22;;;;;;;2.38;1.27;;;;;;;;;;5013549;28;20041;-83
2021/09/13 04:53:47;;;;;;;4.63;1.05;;;;;;;;;;5023437;28;20027;-82
2021/09/13 04:56:13;;;;;;;2.75;1.20;;;;;;;;;;5021619;28;20029;-82
2021/09/13 04:58:39;;;;;;;2.60;1.48;;;;;;;;;;5017061;28;20033;-83
2021/09/13 05:01:08;;;;;;;1.15;1.05;;;;;;;;;;5013147;28;20045;-83
2021/09/13 05:03:35;;;;;;;2.63;1.10;;;;;;;;;;5010699;28;20037;-83
2021/09/13 05:06:02;;;;;;;2.00;1.02;;;17.20;60.80;;;;;;5013641;28;20028;-83
2021/09/13 05:08:28;;;;;;;2.50;1.15;;;;;;;;;;5023193;28;20029;-82
2021/09/13 05:10:54;;;;;;;4.75;1.10;;;;;;;;;;5022919;28;20096;-83
2021/09/13 05:13:20;;;;;;;1.77;0.98;;;;;;;;;;5016935;28;20032;-82
2021/09/13 05:15:46;;;;;;;1.77;1.40;;;;;;;;;;5010711;28;20548;-84
2021/09/13 05:18:12;;;;;;;3.28;1.63;;;;;;;;;;5019671;28;20033;-82
2021/09/13 05:20:38;;;;;;;1.13;0.98;;;;;;;;;;5026510;28;20042;-83
2021/09/13 05:23:04;;;;;;;1.52;1.02;;;;;;;;;;5026695;28;20040;-83
2021/09/13 05:25:30;;;;;;;1.20;1.00;;;;;;;;;;5024446;28;20117;-84
2021/09/13 05:27:56;;;;;;;4.00;1.30;;;;;;;;;;5025812;28;20750;-83
2021/09/13 05:30:22;;;;;;;1.67;1.15;;;;;;;;;;5024617;28;20104;-82
2021/09/13 05:32:48;;;;;;;1.98;1.10;;;;;;;;;;5024868;28;20105;-83
2021/09/13 05:35:15;;;;;;;1.45;0.95;;;;;;;;;;5025245;28;20047;-83
2021/09/13 05:37:41;;;;;;;1.67;1.45;;;;;;;;;;5027161;28;20646;-83
2021/09/13 05:40:07;;;;;;;4.97;1.48;;;;;;;;;;5024860;28;20082;-83
2021/09/13 05:42:34;;;;;;;2.45;1.20;;;;;;;;;;5024647;28;20862;-83
2021/09/13 05:45:00;;;;;;;1.55;1.08;;;;;;;;;;5027187;28;20025;-84
2021/09/13 05:47:26;;;;;;;1.48;0.90;;;;;;;;;;5023410;28;20106;-83
2021/09/13 05:49:52;;;;;;;2.38;2.05;;;;;;;;;;5021156;28;20041;-82
2021/09/13 05:52:18;;;;;;;1.98;0.85;;;;;;;;;;5024087;28;20025;-82
2021/09/13 05:54:44;;;;;;;1.55;0.98;;;;;;;;;;5040426;28;20065;-83
2021/09/13 05:57:10;;;;;;;3.55;1.85;;;;;;;;;;5028032;28;20030;-82
2021/09/13 05:59:36;;;;;;;6.88;1.48;;;;;;;;;;5023050;28;20725;-81
2021/09/13 06:02:03;;;;;;;7.68;1.05;;;;;;;;;;5023228;28;20052;-82
2021/09/13 06:04:32;;;;;;;4.03;1.50;;;;;;;;;;5024823;28;20017;-82
2021/09/13 06:06:58;;;;;;;2.40;1.15;;;;;;;;;;5024810;28;20042;-82
2021/09/13 06:09:24;;;;;;;3.05;1.40;;;;;;;;;;5026880;28;20540;-83
2021/09/13 06:11:50;;;;;;;7.25;1.63;;;;;;;;;;5027273;28;20084;-83
2021/09/13 06:14:19;;;;;;;1.80;0.90;;;;;;;;;;5024069;28;20512;-82
2021/09/13 06:16:45;;;;;;;7.30;1.08;;;;;;;;;;5026603;28;20048;-82
2021/09/13 06:19:11;;;;;;;2.67;1.70;;;;;;;;;;5030777;28;20029;-81
2021/09/13 06:21:37;;;;;;;1.95;1.35;;;;;;;;;;5029979;28;20145;-84
2021/09/13 06:24:03;;;;;;;3.80;0.75;;;;;;;;;;5029297;28;20071;-83
2021/09/13 06:26:30;;;;;;;2.67;1.10;;;;;;;;;;5028923;28;20096;-83
2021/09/13 06:28:55;;;;;;;4.32;1.23;;;;;;;;;;5030219;28;20017;-82
2021/09/13 06:31:22;;;;;;;1.83;0.90;;;;;;;;;;5028062;28;20509;-83
2021/09/13 06:33:48;;;;;;;2.28;0.80;;;;;;;;;;5028748;28;20455;-84
2021/09/13 06:36:14;;;;;;;1.13;0.57;;;;;;;;;;5032294;28;20546;-83
2021/09/13 06:38:40;;;;;;;4.15;1.17;;;;;;;;;;5026432;28;20497;-83
2021/09/13 06:41:06;;;;;;;1.83;0.90;;;;;;;;;;5028315;28;20040;-83
2021/09/13 06:43:32;;;;;;;3.03;0.88;;;;;;;;;;5028325;28;20026;-83
2021/09/13 06:46:49;;;;;;;3.92;0.82;;;26.20;41.40;;;;;;5028050;28;20022;-82
2021/09/13 06:48:45;;;;;;;1.50;0.68;;;;;;;;;;5009654;28;20037;-83
2021/09/13 06:51:12;;;;;;;4.45;0.80;;;;;;;;;;5030623;28;20033;-83
2021/09/13 06:53:38;;;;;;;2.13;1.27;;;;;;;;;;5026258;28;20115;-83
2021/09/13 06:56:04;;;;;;;1.05;0.60;;;;;;;;;;5027744;28;20037;-83
2021/09/13 06:58:31;;;;;;;2.40;0.60;;;;;;;;;;5027418;28;20022;-82
2021/09/13 07:00:57;;;;;;;1.48;1.17;;;;;;;;;;5027877;28;20034;-83
2021/09/13 07:03:23;;;;;;;2.50;1.20;;;;;;;;;;5045956;28;20025;-83
2021/09/13 07:05:50;;;;;;;1.52;0.70;;;;;;;;;;5028997;28;20481;-82
2021/09/13 07:08:16;;;;;;;1.63;0.63;;;;;;;;;;5027614;28;20124;-84
2021/09/13 07:10:42;;;;;;;0.77;0.50;;;;;;;;;;5026878;28;20033;-84
2021/09/13 07:13:08;;;;;;;3.30;0.95;;;;;;;;;;5026545;28;20380;-82
2021/09/13 07:15:34;;;;;;;1.50;0.90;;;;;;;;;;5044046;28;20091;-83
2021/09/13 07:18:00;;;;;;;1.57;0.90;;;;;;;;;;5028231;28;20460;-83
2021/09/13 07:20:26;;;;;;;0.97;0.70;;;;;;;;;;5027347;28;20043;-84
2021/09/13 07:22:52;;;;;;;2.37;1.47;;;;;;;;;;5027632;28;20022;-83
2021/09/13 07:25:18;;;;;;;4.77;1.23;;;;;;;;;;5026086;28;20117;-83
2021/09/13 07:27:45;;;;;;;2.50;2.13;;;;;;;;;;5027692;28;20311;-83
2021/09/13 07:30:12;;;;;;;2.55;1.20;;;31.50;33.30;;;;;;5030242;28;20033;-83
2021/09/13 07:32:38;;;;;;;2.67;1.10;;;;;;;;;;5027041;28;20057;-83
2021/09/13 07:35:06;;;;;;;2.10;1.38;;;32.40;32.00;;;;;;5025874;28;20498;-91
2021/09/13 07:37:33;;;;;;;2.85;1.10;;;;;;;;;;5028275;28;20029;-82
2021/09/13 07:39:59;;;;;;;7.20;1.42;;;;;;;;;;5026912;28;20542;-83
2021/09/13 07:42:25;;;;;;;14.53;1.23;;;;;;;;;;5029686;28;20049;-82
2021/09/13 07:44:51;;;;;;;3.63;1.47;;;;;;;;;;5029359;28;20112;-83
2021/09/13 07:47:19;;;;;;;1.45;0.98;;;;;;;;;;5026981;28;20029;-82
2021/09/13 07:49:45;;;;;;;2.85;1.25;;;;;;;;;;5028770;28;20040;-83
2021/09/13 07:52:11;;;;;;;1.75;1.20;;;;;;;;;;5028519;28;20379;-83
2021/09/13 07:54:37;;;;;;;5.15;0.82;;;;;;;;;;5028693;28;20565;-82
2021/09/13 07:57:03;;;;;;;1.88;1.13;;;;;;;;;;5030593;28;20121;-83
2021/09/13 07:59:29;;;;;;;1.88;1.02;;;;;;;;;;5026696;28;20113;-82
2021/09/13 08:01:55;;;;;;;4.83;1.10;;;;;;;;;;5026112;28;20109;-83
2021/09/13 08:04:21;;;;;;;9.88;2.28;;;;;;;;;;5025579;28;20268;-82
2021/09/13 08:06:47;;;;;;;2.55;1.30;;;;;;;;;;5012291;28;20553;-82
2021/09/13 08:09:13;;;;;;;1.15;0.85;;;;;;;;;;5029558;28;20116;-82
2021/09/13 08:11:40;;;;;;;2.17;0.82;;;;;;;;;;5026023;28;20104;-82
2021/09/13 08:14:05;;;;;;;;;;;33.90;32.20;;;;;;5027182;28;20030;-83
2021/09/13 08:16:31;;;;;;;1.75;1.08;;;;;;;;;;5024736;28;20559;-82
2021/09/13 08:18:58;;;;;;;1.80;0.85;;;;;;;;;;5026222;28;20446;-82
2021/09/13 08:21:26;;;;;;;1.58;0.40;;;;;;;;;;5029515;28;20061;-83
2021/09/13 08:23:53;;;;;;;1.60;0.77;;;;;;;;;;5028427;28;20541;-85
2021/09/13 08:26:19;;;;;;;3.35;0.90;;;;;;;;;;5026134;28;20022;-83
2021/09/13 08:28:45;;;;;;;2.22;1.00;;;;;;;;;;5026465;28;20037;-85
2021/09/13 08:31:11;;;;;;;1.40;0.68;;;;;;;;;;5022311;28;20049;-82
2021/09/13 08:33:37;;;;;;;3.08;1.08;;;;;;;;;;5026498;28;20025;-82
2021/09/13 08:36:04;;;;;;;1.88;0.85;;;34.50;30.80;;;;;;5029205;28;20095;-91
2021/09/13 08:38:30;;;;;;;1.60;0.80;;;;;;;;;;5030590;28;20666;-86
2021/09/13 08:40:57;;;;;;;1.05;0.70;;;;;;;;;;5025972;28;20091;-86
2021/09/13 08:43:23;;;;;;;1.83;0.57;;;;;;;;;;5023519;28;20022;-87
2021/09/13 08:45:54;;;;;;;1.23;0.60;;;34.00;31.50;;;;;;5029397;28;20025;-87
2021/09/13 08:48:28;;;;;;;2.20;0.45;;;34.10;31.30;;;;;;5027675;28;20057;-87
2021/09/13 08:53:42;;;;;;;0.38;0.30;;;;;;;;;;5033622;28;20039;-92
2021/09/13 08:56:14;;;;;;;5.65;1.00;;;;;;;;;;5030487;28;20052;-89
2021/09/13 08:58:41;;;;;;;1.75;0.70;;;34.20;32.40;;;;;;5046350;28;20037;-89
2021/09/13 09:01:07;;;;;;;2.53;0.82;;;;;;;;;;5025218;28;20032;-88
2021/09/13 09:03:36;;;;;;;;;;;33.80;32.10;;;;;;5030243;28;20033;-90
2021/09/13 09:06:02;;;;;;;1.13;0.50;;;;;;;;;;5012575;28;19955;-88
2021/09/13 09:08:36;;;;;;;1.58;0.47;;;33.80;32.00;;;;;;5029486;28;20032;-88
2021/09/13 09:11:04;;;;;;;1.00;0.60;;;33.60;33.10;;;;;;5030178;28;20116;-89
2021/09/13 09:13:44;;;;;;;1.23;0.43;;;33.60;35.20;;;;;;5028031;28;20049;-88
2021/09/13 09:16:13;;;;;;;1.60;0.60;;;33.90;33.50;;;;;;5027765;28;20265;-89
2021/09/13 09:18:42;;;;;;;1.70;1.00;;;;;;;;;;5030547;28;20472;-89
2021/09/13 09:21:09;;;;;;;2.17;0.68;;;34.00;32.40;;;;;;5012257;28;20085;-89
2021/09/13 09:23:57;;;;;;;1.20;0.63;;;33.60;31.30;;;;;;5030386;28;20140;-92
2021/09/13 09:26:23;;;;;;;3.72;1.13;;;;;;;;;;5030057;28;20033;-91
2021/09/13 09:28:51;;;;;;;5.47;1.27;;;33.60;33.60;;;;;;5029121;28;20104;-89
2021/09/13 09:31:39;;;;;;;7.05;0.98;;;33.70;48.80;;;;;;5012107;28;20124;-87
2021/09/13 09:34:19;;;;;;;2.42;1.10;;;34.00;32.20;;;;;;5011072;28;20048;-84
2021/09/13 09:37:01;;;;;;;9.60;1.98;;;;;;;;;;5024303;28;20434;-84
2021/09/13 09:39:30;;;;;;;1.27;0.47;;;34.00;32.40;;;;;;5022807;28;20029;-85
2021/09/13 09:41:57;;;;;;;1.80;0.68;;;;;;;;;;5024915;28;20060;-84
2021/09/13 09:44:23;;;;;;;2.63;0.60;;;34.40;32.80;;;;;;5024068;28;20407;-84
2021/09/13 09:46:51;;;;;;;1.52;0.65;;;;;;;;;;5027558;28;20100;-85
2021/09/13 09:49:18;;;;;;;1.88;0.68;;;34.40;32.50;;;;;;5027319;28;20426;-84
2021/09/13 09:51:54;;;;;;;1.38;0.73;;;34.70;47.80;;;;;;5023628;28;20126;-85
2021/09/13 09:54:22;;;;;;;1.98;0.60;;;34.80;31.80;;;;;;5024909;28;20471;-85
2021/09/13 09:57:05;;;;;;;1.88;0.80;;;35.10;31.80;;;;;;5026765;28;20041;-87
2021/09/13 09:59:33;;;;;;;1.65;0.73;;;35.60;30.30;;;;;;5013136;28;20161;-89
2021/09/13 10:01:59;;;;;;;3.10;1.85;;;;;;;;;;5030254;28;20041;-90
2021/09/13 10:04:27;;;;;;;1.38;0.73;;;35.60;30.30;;;;;;5026136;28;20034;-87
2021/09/13 10:07:00;;;;;;;5.78;0.93;;;35.40;46.00;;;;;;5026815;28;20088;-89
2021/09/13 10:09:30;;;;;;;1.27;0.63;;;35.70;30.20;;;;;;5024366;28;20438;-90
2021/09/13 10:11:59;;;;;;;0.50;0.40;;;35.70;30.90;;;;;;5014835;28;20048;-87
2021/09/13 10:14:27;;;;;;;0.73;0.50;;;36.00;30.10;;;;;;5022592;28;20044;-86
2021/09/13 10:16:54;;;;;;;1.20;0.60;;;36.10;29.90;;;;;;5025354;28;20616;-84
2021/09/13 10:19:22;;;;;;;1.67;0.77;;;36.50;29.40;;;;;;5025469;28;20116;-85
2021/09/13 10:21:49;;;;;;;1.50;0.73;;;36.30;30.40;;;;;;5023573;28;20140;-84
2021/09/13 10:24:15;;;;;;;3.05;1.00;;;;;;;;;;5038901;28;20072;-84
2021/09/13 10:26:50;;;;;;;2.58;0.73;;;35.80;29.70;;;;;;5023232;28;20586;-85
2021/09/13 10:29:18;;;;;;;2.55;0.73;;;35.80;29.90;;;;;;5026213;28;20078;-85
2021/09/13 10:31:47;;;;;;;3.40;0.60;;;;;;;;;;5024100;28;20025;-83
2021/09/13 10:34:31;;;;;;;2.22;1.00;;;35.40;31.00;;;;;;5025836;28;20036;-85
2021/09/13 10:36:59;;;;;;;1.33;0.70;;;;;;;;;;5012362;28;20037;-85
2021/09/13 10:39:56;;;;;;;2.00;0.65;;;35.00;31.70;;;;;;5027014;28;20061;-84
2021/09/13 10:42:28;;;;;;;2.55;1.42;;;34.50;30.80;;;;;;5023256;28;20021;-84
2021/09/13 10:45:06;;;;;;;1.08;0.38;;;;;;;;;;5026969;28;20432;-84
2021/09/13 10:47:32;;;;;;;2.20;0.88;;;;;;;;;;5024576;28;20030;-84
2021/09/13 10:50:21;;;;;;;1.42;0.85;;;34.10;32.40;;;;;;5023822;28;20018;-84
2021/09/13 10:52:55;;;;;;;2.58;0.75;;;33.60;38.40;;;;;;5031556;28;20048;-84
2021/09/13 10:55:21;;;;;;;2.80;0.93;;;;;;;;;;5025029;28;20148;-85
2021/09/13 10:57:53;;;;;;;2.92;1.45;;;;;;;;;;5040022;28;20109;-84
2021/09/13 11:00:38;;;;;;;0.90;0.50;;;32.90;35.80;;;;;;5024150;28;20064;-84
2021/09/13 11:03:22;;;;;;;3.60;0.70;;;32.50;37.20;;;;;;5024749;28;20091;-85
2021/09/13 11:06:00;;;;;;;4.15;1.27;;;;;;;;;;5029416;28;20021;-85
2021/09/13 11:08:26;;;;;;;0.63;0.55;;;32.40;39.10;;;;;;5028309;28;20026;-84
2021/09/13 11:10:52;;;;;;;2.60;0.97;;;;;;;;;;5026890;28;20402;-84
2021/09/13 11:13:18;;;;;;;1.87;0.77;;;;;;;;;;5027831;28;20036;-84
2021/09/13 11:15:50;;;;;;;2.70;0.97;;;;;;;;;;5029027;28;20377;-85
2021/09/13 11:18:35;;;;;;;2.35;1.00;;;32.00;35.40;;;;;;5031051;28;20033;-85
2021/09/13 11:21:22;;;;;;;2.00;0.73;;;32.00;36.70;;;;;;5031248;28;20049;-84
2021/09/13 11:24:07;;;;;;;1.17;0.52;;;32.00;35.80;;;;;;5028937;28;20477;-84
2021/09/13 11:26:36;;;;;;;1.48;0.70;;;31.90;35.90;;;;;;5027176;28;20060;-84
2021/09/13 11:29:04;;;;;;;1.85;0.82;;;;;;;;;;5027406;28;20021;-85
2021/09/13 11:31:30;;;;;;;1.80;1.20;;;;;;;;;;5027216;28;20072;-85
2021/09/13 11:33:57;;;;;;;5.03;0.80;;;31.60;35.20;;;;;;5025308;28;20430;-84
2021/09/13 11:36:22;;;;;;;;;;;;;;;;;;5030715;28;20041;-85
2021/09/13 11:38:56;;;;;;;1.60;0.73;;;;;;;;;;5027804;28;19916;-84
2021/09/13 11:41:22;;;;;;;9.40;1.23;;;;;;;;;;5026561;28;20796;-84
2021/09/13 11:43:58;;;;;;;2.87;0.77;;;;;;;;;;5027371;28;20029;-85
2021/09/13 11:46:24;;;;;;;1.55;0.90;;;;;;;;;;5026134;28;20033;-85
2021/09/13 11:48:50;;;;;;;1.00;0.65;;;;;;;;;;5012388;28;20073;-85
2021/09/13 11:51:16;;;;;;;0.90;0.52;;;;;;;;;;5030082;28;20033;-85
2021/09/13 11:53:42;;;;;;;1.85;1.08;;;;;;;;;;5021515;28;20049;-85
2021/09/13 11:56:11;;;;;;;2.10;0.57;;;;;;;;;;5028645;28;20048;-85
2021/09/13 11:58:44;;;;;;;1.60;0.75;;;30.60;35.70;;;;;;5026437;28;20449;-85
2021/09/13 12:01:19;;;;;;;2.13;0.98;;;30.40;36.50;;;;;;5028751;28;20494;-87
2021/09/13 12:03:45;;;;;;;2.40;1.13;;;;;;;;;;5026588;28;20125;-85
2021/09/13 12:06:20;;;;;;;2.05;1.20;;;;;;;;;;5030269;28;20485;-86
2021/09/13 12:08:46;;;;;;;2.10;0.93;;;;;;;;;;5025761;28;20048;-84
2021/09/13 12:11:16;;;;;;;4.30;0.80;;;;;;;;;;5042013;28;20376;-85
2021/09/13 12:13:42;;;;;;;1.70;1.00;;;;;;;;;;5027571;28;20044;-86
2021/09/13 12:16:11;;;;;;;5.72;1.05;;;;;;;;;;5027159;28;20037;-85
2021/09/13 12:18:37;;;;;;;1.70;0.95;;;;;;;;;;5028416;28;20033;-85
2021/09/13 12:21:03;;;;;;;1.67;0.75;;;;;;;;;;5028652;28;20057;-87
2021/09/13 12:23:32;;;;;;;8.10;1.35;;;;;;;;;;5026954;28;20026;-86
2021/09/13 12:26:03;;;;;;;4.47;1.02;;;;;;;;;;5028402;28;20518;-85
2021/09/13 12:28:31;;;;;;;1.23;0.80;;;;;;;;;;5028719;28;20540;-85
2021/09/13 12:30:58;;;;;;;1.48;1.05;;;29.70;38.90;;;;;;5027143;28;20040;-84
2021/09/13 12:33:41;;;;;;;1.80;1.02;;;;;;;;;;5028701;28;20048;-85
2021/09/13 12:36:17;;;;;;;4.45;1.33;;;29.60;39.10;;;;;;5030246;28;20030;-85
2021/09/13 12:38:44;;;;;;;5.07;0.82;;;;;;;;;;5024617;28;20026;-85
2021/09/13 12:41:11;;;;;;;2.58;0.90;;;;;;;;;;5026720;28;20036;-85
2021/09/13 12:43:41;;;;;;;1.63;0.80;;;;;;;;;;5026386;28;20036;-85
2021/09/13 12:46:11;;;;;;;2.05;0.90;;;;;;;;;;5027778;28;20128;-86
2021/09/13 12:48:45;;;;;;;1.55;0.82;;;29.30;40.90;;;;;;5029396;28;20114;-84
2021/09/13 12:51:17;;;;;;;6.13;1.38;;;;;;;;;;5029554;28;20079;-84
2021/09/13 12:54:00;;;;;;;1.88;1.25;;;29.30;39.50;;;;;;5025391;28;20033;-85
2021/09/13 12:56:27;;;;;;;1.10;0.60;;;;;;;;;;5026490;28;20045;-85
2021/09/13 12:59:08;;;;;;;2.50;1.00;;;;;;;;;;5031462;28;20021;-85
2021/09/13 13:01:34;;;;;;;2.97;1.25;;;;;;;;;;5024952;28;20074;-84
2021/09/13 13:04:00;;;;;;;2.70;1.95;;;;;;;;;;5023831;28;20034;-84
2021/09/13 13:06:26;;;;;;;2.25;0.90;;;;;;;;;;4952395;28;20061;-83
2021/09/13 13:08:52;;;;;;;1.48;0.88;;;;;;;;;;4983412;28;20043;-84
2021/09/13 13:11:18;;;;;;;1.75;1.10;;;;;;;;;;4967935;28;20018;-83
2021/09/13 13:13:44;;;;;;;5.93;0.93;;;;;;;;;;4961368;28;20166;-83
2021/09/13 13:16:10;;;;;;;3.42;0.98;;;;;;;;;;4966870;28;20508;-83
2021/09/13 13:18:36;;;;;;;2.22;1.00;;;;;;;;;;4969007;28;20037;-83
2021/09/13 13:21:03;;;;;;;2.13;0.90;;;;;;;;;;4967535;28;20058;-83
2021/09/13 13:23:29;;;;;;;1.20;0.77;;;;;;;;;;4965775;28;20531;-84
2021/09/13 13:25:55;;;;;;;2.00;0.70;;;;;;;;;;4966114;28;20038;-84
2021/09/13 13:28:22;;;;;;;2.33;0.70;;;;;;;;;;4966351;28;20027;-84
2021/09/13 13:30:48;;;;;;;5.47;0.98;;;28.90;38.70;;;;;;4965647;28;20043;-84
2021/09/13 13:33:15;;;;;;;1.08;0.82;;;;;;;;;;4966955;28;20035;-84
2021/09/13 13:35:41;;;;;;;1.80;0.90;;;;;;;;;;4967121;28;20809;-84
2021/09/13 13:38:08;;;;;;;1.95;0.98;;;;;;;;;;4962449;28;20031;-86
2021/09/13 13:40:34;;;;;;;1.13;0.95;;;;;;;;;;4965547;28;20635;-84
2021/09/13 13:43:00;;;;;;;5.53;1.23;;;;;;;;;;4966406;28;20481;-83
2021/09/13 13:45:26;;;;;;;3.75;0.70;;;;;;;;;;4968612;28;20039;-84
2021/09/13 13:47:53;;;;;;;7.32;0.73;;;;;;;;;;4968317;28;20023;-83
2021/09/13 13:50:20;;;;;;;2.40;0.95;;;;;;;;;;4966392;28;20121;-83
2021/09/13 13:52:47;;;;;;;2.28;1.00;;;;;;;;;;4964821;28;20038;-84
2021/09/13 13:55:14;;;;;;;2.70;0.90;;;;;;;;;;4965918;28;20027;-85
2021/09/13 13:57:40;;;;;;;5.55;0.75;;;;;;;;;;4964954;28;20046;-86
2021/09/13 14:00:07;;;;;;;2.25;1.00;;;;;;;;;;4981183;28;20027;-85
2021/09/13 14:02:33;;;;;;;2.75;0.55;;;;;;;;;;4963600;28;20050;-84
2021/09/13 14:04:59;;;;;;;1.00;0.70;;;;;;;;;;4962352;28;20034;-85
2021/09/13 14:07:25;;;;;;;1.45;0.77;;;;;;;;;;4966099;28;20033;-86
2021/09/13 14:09:51;;;;;;;3.80;1.02;;;;;;;;;;4967081;28;20046;-87
2021/09/13 14:12:17;;;;;;;0.93;0.60;;;;;;;;;;4985057;28;20055;-86
2021/09/13 14:14:43;;;;;;;1.05;0.60;;;;;;;;;;4968164;28;20090;-84
2021/09/13 14:17:09;;;;;;;1.25;0.60;;;;;;;;;;4963786;28;20035;-85
2021/09/13 14:19:35;;;;;;;4.78;0.80;;;;;;;;;;4970490;28;20026;-84
2021/09/13 14:22:01;;;;;;;5.35;0.63;;;;;;;;;;4971028;28;20061;-84
2021/09/13 14:24:27;;;;;;;0.73;0.50;;;;;;;;;;4969556;28;20031;-84
2021/09/13 14:26:53;;;;;;;1.75;0.75;;;;;;;;;;4968905;28;20048;-84
2021/09/13 14:29:19;;;;;;;2.20;1.02;;;;;;;;;;4966704;28;20370;-86